Time;durP1;ratioP1;P1;durP2;ratioP2;P2;SDS_P1;SDS_P2;PMS_P1;PMS_P2;Temp;Humidity;BMP_temperature;BMP_pressure;BME280_temperature;BME280_humidity;BME280_pressure;Samples;Min_cycle;Max_cycle;Signal;HPM_P1;HPM_P2
2021/12/01 00:01:54;;;;;;;3.75;2.03;;;10.50;92.20;;;;;;5051050;28;20481;-85
2021/12/01 00:04:19;;;;;;;5.15;2.08;;;10.50;92.00;;;;;;5052045;28;20025;-86
2021/12/01 00:06:45;;;;;;;4.72;2.20;;;10.50;92.00;;;;;;5056096;28;20061;-85
2021/12/01 00:09:10;;;;;;;4.45;2.10;;;10.50;91.90;;;;;;5048406;28;20072;-86
2021/12/01 00:11:36;;;;;;;4.13;2.40;;;10.50;91.80;;;;;;5044907;28;20041;-85
2021/12/01 00:14:02;;;;;;;6.50;2.58;;;10.50;91.70;;;;;;5050512;28;20044;-84
2021/12/01 00:16:28;;;;;;;5.22;2.70;;;10.50;91.50;;;;;;5054170;28;20044;-85
2021/12/01 00:18:53;;;;;;;4.07;2.15;;;10.50;91.20;;;;;;5051885;28;20115;-86
2021/12/01 00:21:19;;;;;;;3.80;1.90;;;10.50;90.90;;;;;;5049878;28;20129;-85
2021/12/01 00:23:45;;;;;;;3.40;2.08;;;10.50;90.80;;;;;;5037557;28;20388;-84
2021/12/01 00:26:10;;;;;;;4.10;2.38;;;10.50;90.70;;;;;;5047587;28;20464;-84
2021/12/01 00:28:36;;;;;;;4.70;2.40;;;10.50;90.50;;;;;;5051546;28;20055;-84
2021/12/01 00:31:03;;;;;;;8.10;2.30;;;10.50;90.30;;;;;;5040060;28;20036;-86
2021/12/01 00:33:29;;;;;;;4.85;2.58;;;10.60;90.10;;;;;;5052498;28;20079;-84
2021/12/01 00:35:56;;;;;;;4.35;2.67;;;10.60;90.10;;;;;;5050839;28;20473;-84
2021/12/01 00:38:23;;;;;;;4.80;2.85;;;10.50;90.20;;;;;;5055015;28;20109;-84
2021/12/01 00:40:50;;;;;;;4.32;2.35;;;10.50;90.30;;;;;;5054363;28;20113;-85
2021/12/01 00:43:17;;;;;;;4.53;2.75;;;10.50;90.20;;;;;;5048661;28;20107;-84
2021/12/01 00:45:50;;;;;;;5.78;2.90;;;10.50;90.30;;;;;;5053474;28;20028;-83
2021/12/01 00:48:18;;;;;;;4.47;3.00;;;10.40;90.30;;;;;;5051584;28;20064;-84
2021/12/01 00:50:44;;;;;;;5.28;3.10;;;10.40;90.40;;;;;;5050756;28;20041;-84
2021/12/01 00:53:11;;;;;;;5.72;3.20;;;10.40;90.30;;;;;;5048314;28;20068;-85
2021/12/01 00:55:37;;;;;;;5.03;3.20;;;10.40;90.50;;;;;;5038322;28;20547;-85
2021/12/01 00:58:04;;;;;;;5.90;3.50;;;10.40;90.60;;;;;;5048681;28;20491;-85
2021/12/01 01:00:31;;;;;;;5.38;3.25;;;10.30;90.70;;;;;;5046760;28;20068;-84
2021/12/01 01:02:58;;;;;;;4.53;2.90;;;10.40;90.70;;;;;;5050030;28;20041;-85
2021/12/01 01:05:25;;;;;;;5.38;3.28;;;10.40;90.80;;;;;;5054409;28;20037;-84
2021/12/01 01:07:51;;;;;;;6.55;3.35;;;10.20;90.80;;;;;;5049359;28;20029;-85
2021/12/01 01:10:45;;;;;;;6.22;3.42;;;10.20;91.00;;;;;;5046315;28;20041;-83
2021/12/01 01:18:46;;;;;;;5.40;3.40;;;10.10;91.00;;;;;;5046437;28;20503;-85
2021/12/01 01:21:12;;;;;;;6.93;3.22;;;10.10;91.10;;;;;;5048183;28;20521;-84
2021/12/01 01:23:39;;;;;;;5.95;3.50;;;10.10;90.90;;;;;;5049596;28;20033;-83
2021/12/01 01:26:07;;;;;;;6.40;3.85;;;10.10;90.90;;;;;;5043901;28;20032;-83
2021/12/01 01:28:33;;;;;;;5.93;3.10;;;10.10;91.00;;;;;;5053733;28;20093;-84
2021/12/01 01:30:59;;;;;;;5.70;3.22;;;10.10;91.00;;;;;;5066653;28;20033;-85
2021/12/01 01:33:25;;;;;;;5.55;3.45;;;10.10;90.90;;;;;;5081475;28;20033;-82
2021/12/01 01:35:52;;;;;;;5.53;3.38;;;10.00;90.80;;;;;;5053856;28;20041;-83
2021/12/01 01:38:18;;;;;;;5.65;3.33;;;10.10;90.70;;;;;;5057329;28;20116;-84
2021/12/01 01:40:44;;;;;;;5.47;3.22;;;10.10;90.60;;;;;;5054224;28;20040;-84
2021/12/01 01:43:10;;;;;;;5.03;3.22;;;10.10;90.60;;;;;;5059333;28;20017;-84
2021/12/01 01:45:36;;;;;;;6.07;3.63;;;10.10;90.50;;;;;;5048563;28;20052;-85
2021/12/01 01:48:08;;;;;;;6.07;3.25;;;10.00;90.50;;;;;;5048018;28;20032;-84
2021/12/01 01:50:39;;;;;;;4.85;3.30;;;10.10;90.40;;;;;;5045917;28;20033;-84
2021/12/01 01:53:12;;;;;;;6.47;3.53;;;10.10;90.30;;;;;;5047727;28;20033;-85
2021/12/01 01:55:44;;;;;;;5.70;3.15;;;10.00;90.20;;;;;;5052289;28;20044;-84
2021/12/01 01:58:12;;;;;;;6.50;3.65;;;10.00;90.20;;;;;;5049192;28;20060;-83
2021/12/01 02:00:48;;;;;;;6.00;3.47;;;10.00;90.30;;;;;;5044316;28;20036;-83
2021/12/01 02:03:15;;;;;;;5.32;3.35;;;10.00;90.20;;;;;;5042083;28;20037;-85
2021/12/01 02:05:41;;;;;;;5.60;3.40;;;10.00;90.30;;;;;;5041017;28;20095;-84
2021/12/01 02:08:16;;;;;;;6.20;4.10;;;10.00;90.40;;;;;;5049780;28;20499;-86
2021/12/01 02:10:44;;;;;;;5.90;3.80;;;10.00;90.40;;;;;;5065184;28;20459;-84
2021/12/01 02:13:09;;;;;;;6.13;4.43;;;10.00;90.40;;;;;;5035758;28;20069;-85
2021/12/01 02:15:35;;;;;;;6.85;4.35;;;9.90;90.30;;;;;;5050975;28;20061;-84
2021/12/01 02:18:02;;;;;;;7.57;4.60;;;9.90;90.40;;;;;;5053667;28;20033;-84
2021/12/01 02:20:27;;;;;;;8.75;4.50;;;9.90;90.40;;;;;;5045342;28;20038;-85
2021/12/01 02:22:53;;;;;;;6.75;4.45;;;9.90;90.30;;;;;;5048450;28;20434;-84
2021/12/01 02:25:24;;;;;;;6.95;4.57;;;9.80;90.40;;;;;;5051487;28;20103;-85
2021/12/01 02:27:49;;;;;;;7.93;4.45;;;9.80;90.60;;;;;;5049337;28;20029;-84
2021/12/01 02:30:15;;;;;;;7.00;4.45;;;9.80;90.60;;;;;;5048557;28;20091;-84
2021/12/01 02:32:42;;;;;;;7.13;4.78;;;9.80;90.50;;;;;;5043620;28;20116;-83
2021/12/01 02:35:09;;;;;;;8.73;4.45;;;9.80;90.60;;;;;;5046568;28;20030;-83
2021/12/01 02:37:37;;;;;;;10.15;5.13;;;9.80;90.80;;;;;;5046944;28;20071;-84
2021/12/01 02:40:04;;;;;;;7.20;4.80;;;9.80;90.90;;;;;;5049217;28;20108;-84
2021/12/01 02:42:30;;;;;;;8.07;5.03;;;9.70;91.10;;;;;;5050292;28;20929;-83
2021/12/01 02:44:56;;;;;;;8.63;5.05;;;9.70;91.20;;;;;;5053474;28;20112;-80
2021/12/01 02:47:27;;;;;;;8.10;5.40;;;9.70;91.30;;;;;;5041513;28;20064;-82
2021/12/01 02:49:55;;;;;;;9.23;5.45;;;9.60;91.60;;;;;;5039758;28;20126;-83
2021/12/01 02:52:22;;;;;;;7.65;5.20;;;9.60;91.60;;;;;;5044914;28;20040;-83
2021/12/01 02:54:48;;;;;;;7.50;5.45;;;9.50;91.80;;;;;;5050939;28;20034;-83
2021/12/01 02:57:14;;;;;;;8.75;5.90;;;9.50;91.90;;;;;;5049202;28;20404;-83
2021/12/01 02:59:40;;;;;;;7.57;5.10;;;9.50;91.90;;;;;;5046010;28;20119;-84
2021/12/01 03:02:06;;;;;;;9.15;5.43;;;9.50;91.90;;;;;;5052823;28;20540;-84
2021/12/01 03:04:32;;;;;;;8.95;5.22;;;9.40;91.90;;;;;;5052577;28;20037;-84
2021/12/01 03:06:58;;;;;;;8.65;5.78;;;9.40;92.00;;;;;;5047600;28;20054;-82
2021/12/01 03:09:26;;;;;;;8.45;5.18;;;9.40;92.00;;;;;;5054597;28;20075;-84
2021/12/01 03:11:52;;;;;;;8.52;5.43;;;9.50;92.00;;;;;;5048054;28;20033;-83
2021/12/01 03:14:19;;;;;;;9.55;5.75;;;9.40;91.80;;;;;;5059843;28;20028;-84
2021/12/01 03:16:47;;;;;;;9.88;6.43;;;9.40;91.90;;;;;;5051626;28;20040;-85
2021/12/01 03:19:12;;;;;;;8.70;5.90;;;9.40;92.00;;;;;;5050770;28;20086;-84
2021/12/01 03:21:41;;;;;;;8.27;5.50;;;9.30;91.90;;;;;;5053799;28;20127;-84
2021/12/01 03:24:08;;;;;;;7.60;5.25;;;9.40;92.00;;;;;;5047052;28;20040;-84
2021/12/01 03:26:34;;;;;;;8.55;5.75;;;9.40;91.90;;;;;;5051223;28;20048;-83
2021/12/01 03:29:01;;;;;;;11.00;5.82;;;9.30;91.60;;;;;;5044693;28;20045;-83
2021/12/01 03:31:26;;;;;;;8.30;5.78;;;9.30;91.70;;;;;;5054256;28;20431;-84
2021/12/01 03:33:52;;;;;;;7.65;5.00;;;9.30;91.70;;;;;;5050963;28;20033;-83
2021/12/01 03:36:18;;;;;;;8.43;5.75;;;9.30;91.60;;;;;;5049856;28;20494;-83
2021/12/01 03:38:44;;;;;;;8.25;5.85;;;9.30;91.60;;;;;;5053656;28;20037;-86
2021/12/01 03:41:11;;;;;;;7.82;5.57;;;9.30;91.70;;;;;;5049182;28;20480;-84
2021/12/01 03:43:36;;;;;;;7.80;5.50;;;9.20;91.80;;;;;;5049124;28;20388;-84
2021/12/01 03:46:02;;;;;;;8.68;5.32;;;9.20;91.90;;;;;;5047358;28;20055;-85
2021/12/01 03:48:28;;;;;;;8.43;5.35;;;9.20;91.80;;;;;;5050468;28;20041;-83
2021/12/01 03:50:54;;;;;;;7.93;5.28;;;9.20;91.80;;;;;;5050161;28;20445;-84
2021/12/01 03:53:22;;;;;;;8.02;4.70;;;9.20;91.60;;;;;;5070470;28;20052;-86
2021/12/01 03:55:49;;;;;;;8.52;4.55;;;9.20;91.60;;;;;;5070142;28;20085;-84
2021/12/01 03:58:15;;;;;;;7.15;4.35;;;9.20;91.40;;;;;;5063648;28;20037;-84
2021/12/01 04:00:41;;;;;;;7.22;4.57;;;9.20;91.30;;;;;;5052335;28;20048;-84
2021/12/01 04:03:06;;;;;;;7.63;4.63;;;9.20;91.30;;;;;;5042197;28;20381;-84
2021/12/01 04:05:33;;;;;;;7.68;4.85;;;9.20;91.30;;;;;;5043046;28;20040;-84
2021/12/01 04:08:01;;;;;;;7.00;4.25;;;9.20;91.30;;;;;;5049647;28;20028;-85
2021/12/01 04:10:27;;;;;;;6.93;4.40;;;9.20;91.30;;;;;;5045789;28;20489;-83
2021/12/01 04:12:52;;;;;;;8.65;4.50;;;9.20;91.40;;;;;;5045985;28;20041;-85
2021/12/01 04:15:18;;;;;;;8.23;4.70;;;9.20;91.50;;;;;;5052752;28;20040;-83
2021/12/01 04:17:45;;;;;;;7.57;4.63;;;9.10;91.70;;;;;;5049237;28;20400;-82
2021/12/01 04:20:15;;;;;;;8.68;4.70;;;9.10;92.00;;;;;;5055053;28;20040;-84
2021/12/01 04:22:42;;;;;;;6.55;3.85;;;9.10;92.20;;;;;;5059867;28;20387;-84
2021/12/01 04:25:08;;;;;;;8.23;4.53;;;9.10;92.30;;;;;;5052443;28;20396;-83
2021/12/01 04:27:35;;;;;;;8.77;4.53;;;9.10;92.30;;;;;;5062110;28;20036;-83
2021/12/01 04:30:01;;;;;;;7.03;3.83;;;9.10;92.40;;;;;;5077624;28;20071;-88
2021/12/01 04:32:27;;;;;;;7.15;3.80;;;9.10;92.50;;;;;;5063898;28;20070;-84
2021/12/01 04:34:53;;;;;;;6.78;3.70;;;9.10;92.50;;;;;;5056310;28;20040;-83
2021/12/01 04:37:19;;;;;;;6.18;3.45;;;9.10;92.50;;;;;;5049590;28;20384;-84
2021/12/01 04:39:44;;;;;;;5.35;3.10;;;9.10;92.60;;;;;;5052182;28;20040;-83
2021/12/01 04:42:11;;;;;;;7.72;3.42;;;9.10;92.60;;;;;;5036940;28;20052;-83
2021/12/01 04:44:37;;;;;;;6.97;3.47;;;9.10;92.50;;;;;;5056441;28;20047;-83
2021/12/01 04:47:08;;;;;;;6.63;3.50;;;9.10;92.50;;;;;;5055614;28;20071;-84
2021/12/01 04:49:37;;;;;;;5.35;3.00;;;9.10;92.60;;;;;;5060452;28;20053;-83
2021/12/01 04:52:04;;;;;;;6.55;3.40;;;9.10;92.50;;;;;;5045540;28;20037;-83
2021/12/01 04:54:30;;;;;;;7.35;3.22;;;9.10;92.50;;;;;;5048965;28;20098;-83
2021/12/01 04:56:56;;;;;;;5.07;3.08;;;9.10;92.50;;;;;;5049853;28;20037;-83
2021/12/01 04:59:23;;;;;;;5.25;3.08;;;9.10;92.50;;;;;;5048608;28;20037;-84
2021/12/01 05:01:52;;;;;;;6.40;3.03;;;9.10;92.40;;;;;;5056604;28;20409;-83
2021/12/01 05:04:21;;;;;;;4.75;2.90;;;9.10;92.40;;;;;;5042682;28;20056;-83
2021/12/01 05:06:46;;;;;;;5.25;3.20;;;9.10;92.40;;;;;;5034862;28;20053;-83
2021/12/01 05:09:12;;;;;;;5.28;3.03;;;9.10;92.40;;;;;;5050902;28;20463;-83
2021/12/01 05:11:41;;;;;;;4.30;2.63;;;9.20;92.50;;;;;;5045563;28;20025;-82
2021/12/01 05:14:11;;;;;;;4.78;3.08;;;9.20;92.40;;;;;;5054568;28;20059;-84
2021/12/01 05:16:39;;;;;;;4.90;2.75;;;9.20;92.60;;;;;;5036635;28;20033;-83
2021/12/01 05:19:08;;;;;;;5.57;3.20;;;9.10;92.60;;;;;;5035025;28;20141;-83
2021/12/01 05:21:34;;;;;;;4.65;3.10;;;9.20;92.70;;;;;;5042909;28;20120;-83
2021/12/01 05:24:01;;;;;;;5.30;3.05;;;9.20;92.60;;;;;;5044510;28;20036;-82
2021/12/01 05:26:27;;;;;;;5.22;2.90;;;9.20;92.60;;;;;;5041240;28;20049;-83
2021/12/01 05:28:52;;;;;;;4.78;3.00;;;9.20;92.70;;;;;;5038646;28;20075;-82
2021/12/01 05:31:18;;;;;;;5.82;3.55;;;9.20;92.70;;;;;;5035317;28;20120;-83
2021/12/01 05:33:44;;;;;;;6.60;3.42;;;9.30;92.70;;;;;;5045241;28;20033;-83
2021/12/01 05:36:10;;;;;;;5.75;3.35;;;9.20;92.70;;;;;;5036114;28;20095;-84
2021/12/01 05:38:35;;;;;;;4.45;2.95;;;9.30;92.80;;;;;;5040718;28;20597;-84
2021/12/01 05:41:02;;;;;;;4.82;3.20;;;9.30;92.80;;;;;;5046447;28;20491;-83
2021/12/01 05:43:28;;;;;;;6.13;3.50;;;9.20;92.70;;;;;;5040896;28;20859;-83
2021/12/01 05:45:54;;;;;;;6.03;3.47;;;9.30;92.80;;;;;;5045450;28;20086;-84
2021/12/01 05:48:20;;;;;;;6.40;3.55;;;9.30;92.90;;;;;;5041085;28;20041;-83
2021/12/01 05:50:46;;;;;;;4.63;3.22;;;9.20;93.00;;;;;;5042479;28;20049;-83
2021/12/01 05:53:13;;;;;;;7.35;3.60;;;9.30;93.00;;;;;;5043834;28;20384;-83
2021/12/01 05:55:41;;;;;;;6.22;3.63;;;9.30;93.00;;;;;;5041203;28;20485;-83
2021/12/01 05:58:08;;;;;;;5.05;2.95;;;9.30;93.10;;;;;;5041644;28;20061;-84
2021/12/01 06:00:34;;;;;;;7.30;3.40;;;9.30;93.20;;;;;;5041318;28;20119;-84
2021/12/01 06:03:00;;;;;;;6.95;3.42;;;9.30;93.20;;;;;;5038265;28;20141;-83
2021/12/01 06:05:27;;;;;;;5.55;3.45;;;9.30;93.20;;;;;;5039048;28;20246;-83
2021/12/01 06:07:53;;;;;;;5.50;3.10;;;9.30;93.30;;;;;;5042393;28;20026;-84
2021/12/01 06:10:18;;;;;;;6.15;3.63;;;9.30;93.40;;;;;;5045888;28;20052;-84
2021/12/01 06:12:45;;;;;;;5.70;3.33;;;9.30;93.40;;;;;;5040110;28;20076;-85
2021/12/01 06:15:14;;;;;;;5.70;2.85;;;9.30;93.50;;;;;;5039146;28;20036;-83
2021/12/01 06:17:40;;;;;;;4.38;3.00;;;9.30;93.50;;;;;;5040838;28;20045;-83
2021/12/01 06:20:08;;;;;;;3.75;2.65;;;9.30;93.50;;;;;;5046218;28;20032;-84
2021/12/01 06:22:34;;;;;;;4.43;2.92;;;9.30;93.40;;;;;;5043795;28;20033;-83
2021/12/01 06:24:59;;;;;;;4.88;2.50;;;9.30;93.40;;;;;;5047318;28;20036;-82
2021/12/01 06:27:25;;;;;;;6.43;3.10;;;9.30;93.40;;;;;;5046568;28;20029;-83
2021/12/01 06:29:54;;;;;;;5.32;2.90;;;9.40;93.50;;;;;;5048586;28;20041;-83
2021/12/01 06:32:21;;;;;;;5.43;2.95;;;9.30;93.50;;;;;;5046403;28;20127;-84
2021/12/01 06:34:46;;;;;;;4.22;2.80;;;9.40;93.50;;;;;;5036976;28;20060;-82
2021/12/01 06:37:12;;;;;;;5.88;2.83;;;9.40;93.60;;;;;;5038031;28;20468;-84
2021/12/01 06:39:38;;;;;;;5.65;3.10;;;9.40;93.50;;;;;;5048941;28;20101;-82
2021/12/01 06:42:05;;;;;;;6.07;3.33;;;9.40;93.50;;;;;;5047133;28;20045;-83
2021/12/01 06:44:31;;;;;;;5.72;3.33;;;9.40;93.50;;;;;;5049975;28;20029;-82
2021/12/01 06:47:01;;;;;;;4.72;2.80;;;9.40;93.50;;;;;;5055571;28;20044;-83
2021/12/01 06:49:27;;;;;;;5.07;2.92;;;9.40;93.50;;;;;;5049368;28;20049;-83
2021/12/01 06:51:52;;;;;;;4.63;2.80;;;9.40;93.50;;;;;;5044838;28;20439;-82
2021/12/01 06:54:18;;;;;;;4.60;2.75;;;9.40;93.60;;;;;;5053583;28;20036;-83
2021/12/01 06:56:44;;;;;;;4.53;2.85;;;9.40;93.60;;;;;;5052126;28;20095;-83
2021/12/01 06:59:11;;;;;;;6.45;2.92;;;9.40;93.60;;;;;;5059576;28;20056;-85
2021/12/01 07:01:37;;;;;;;5.63;3.35;;;9.40;93.70;;;;;;5047122;28;20048;-82
2021/12/01 07:04:03;;;;;;;6.00;3.45;;;9.40;93.70;;;;;;5052732;28;20026;-83
2021/12/01 07:06:28;;;;;;;6.43;3.28;;;9.40;93.70;;;;;;5047101;28;20434;-83
2021/12/01 07:08:59;;;;;;;4.72;3.08;;;9.40;93.80;;;;;;5050855;28;20040;-84
2021/12/01 07:11:24;;;;;;;4.03;2.90;;;9.40;93.80;;;;;;5051972;28;20043;-83
2021/12/01 07:13:50;;;;;;;3.58;2.13;;;9.30;93.80;;;;;;5058428;28;20090;-84
2021/12/01 07:16:16;;;;;;;3.55;1.80;;;9.40;93.80;;;;;;5049090;28;20124;-87
2021/12/01 07:18:42;;;;;;;3.33;1.73;;;9.40;93.80;;;;;;5053685;28;20048;-83
2021/12/01 07:21:08;;;;;;;2.63;1.50;;;9.40;93.80;;;;;;5052206;28;20025;-84
2021/12/01 07:23:34;;;;;;;2.45;1.48;;;9.40;93.70;;;;;;5051076;28;20029;-84
2021/12/01 07:26:01;;;;;;;3.70;1.40;;;9.40;93.70;;;;;;5043963;28;20035;-84
2021/12/01 07:28:27;;;;;;;2.55;1.40;;;9.40;93.60;;;;;;5045604;28;20044;-84
2021/12/01 07:30:52;;;;;;;3.47;1.70;;;9.40;93.70;;;;;;5054464;28;20041;-84
2021/12/01 07:33:18;;;;;;;2.63;1.70;;;9.40;93.60;;;;;;5049745;28;20148;-85
2021/12/01 07:35:44;;;;;;;2.97;1.73;;;9.40;93.60;;;;;;5049298;28;20056;-86
2021/12/01 07:38:09;;;;;;;2.78;1.60;;;9.40;93.70;;;;;;5048323;28;20033;-85
2021/12/01 07:40:35;;;;;;;2.95;1.40;;;9.40;93.70;;;;;;5055860;28;20045;-85
2021/12/01 07:43:01;;;;;;;1.50;1.23;;;9.40;93.60;;;;;;5055821;28;20030;-85
2021/12/01 07:45:28;;;;;;;2.53;1.30;;;9.40;93.60;;;;;;5044731;28;20052;-85
2021/12/01 07:47:54;;;;;;;2.53;1.17;;;9.50;93.60;;;;;;5052314;28;20033;-84
2021/12/01 07:50:20;;;;;;;1.83;1.20;;;9.50;93.50;;;;;;5055764;28;20055;-84
2021/12/01 07:52:46;;;;;;;2.88;1.40;;;9.50;93.50;;;;;;5053926;28;20029;-85
2021/12/01 07:55:11;;;;;;;2.00;1.30;;;9.50;93.40;;;;;;5055590;28;20039;-84
2021/12/01 07:57:38;;;;;;;3.72;1.73;;;9.60;93.50;;;;;;5050904;28;20053;-85
2021/12/01 08:00:05;;;;;;;4.10;1.48;;;9.50;93.50;;;;;;5045198;28;20048;-85
2021/12/01 08:02:31;;;;;;;3.92;1.70;;;9.50;93.50;;;;;;5051004;28;20483;-85
2021/12/01 08:04:57;;;;;;;4.22;1.73;;;9.60;93.50;;;;;;5048656;28;20064;-85
2021/12/01 08:07:25;;;;;;;5.32;1.98;;;9.60;93.50;;;;;;5050573;28;20086;-85
2021/12/01 08:09:50;;;;;;;4.82;1.70;;;9.60;93.50;;;;;;5045974;28;20041;-85
2021/12/01 08:12:16;;;;;;;5.85;2.13;;;9.60;93.60;;;;;;5044954;28;20400;-86
2021/12/01 08:14:42;;;;;;;5.60;2.13;;;9.60;93.60;;;;;;5049947;28;20103;-85
2021/12/01 08:17:08;;;;;;;5.93;2.58;;;9.60;93.60;;;;;;5041929;28;20067;-86
2021/12/01 08:19:33;;;;;;;6.78;3.00;;;9.60;93.60;;;;;;5058175;28;20067;-84
2021/12/01 08:21:59;;;;;;;7.18;3.72;;;9.60;93.70;;;;;;5050123;28;20029;-85
2021/12/01 08:24:25;;;;;;;8.35;4.70;;;9.70;93.70;;;;;;5050153;28;20116;-85
2021/12/01 08:26:51;;;;;;;8.02;4.13;;;9.70;93.70;;;;;;5052910;28;20033;-86
2021/12/01 08:29:17;;;;;;;6.95;4.05;;;9.70;93.60;;;;;;5058821;28;20097;-84
2021/12/01 08:31:43;;;;;;;7.15;3.47;;;9.70;93.60;;;;;;5067879;28;20033;-84
2021/12/01 08:34:09;;;;;;;11.30;4.90;;;9.80;93.60;;;;;;5055453;28;20059;-85
2021/12/01 08:36:35;;;;;;;13.05;6.13;;;9.80;93.70;;;;;;5047781;28;20039;-86
2021/12/01 08:39:01;;;;;;;15.18;8.05;;;9.80;93.70;;;;;;5039640;28;20544;-84
2021/12/01 08:41:27;;;;;;;12.00;6.43;;;9.80;93.90;;;;;;5049955;28;20064;-83
2021/12/01 08:43:52;;;;;;;9.98;3.55;;;9.80;93.40;;;;;;5043032;28;20068;-83
2021/12/01 08:46:18;;;;;;;7.13;2.83;;;9.70;92.10;;;;;;5048025;28;20136;-84
2021/12/01 08:48:44;;;;;;;11.63;2.78;;;9.60;91.30;;;;;;5049328;28;20057;-85
2021/12/01 08:51:10;;;;;;;8.07;2.25;;;9.60;90.90;;;;;;5046937;28;20582;-85
2021/12/01 08:53:39;;;;;;;8.05;2.22;;;9.60;90.80;;;;;;5045660;28;20041;-85
2021/12/01 08:56:06;;;;;;;8.10;2.28;;;9.50;90.40;;;;;;5046747;28;20040;-85
2021/12/01 08:58:31;;;;;;;8.45;2.20;;;9.50;90.30;;;;;;5040168;28;20027;-85
2021/12/01 09:00:57;;;;;;;7.88;2.25;;;9.50;90.50;;;;;;5048803;28;20036;-87
2021/12/01 09:03:25;;;;;;;13.85;3.45;;;9.40;90.60;;;;;;5046262;28;20052;-85
2021/12/01 09:05:52;;;;;;;8.73;3.00;;;9.50;90.50;;;;;;5048263;28;20468;-85
2021/12/01 09:08:20;;;;;;;10.07;2.97;;;9.50;90.10;;;;;;5044833;28;20120;-85
2021/12/01 09:10:48;;;;;;;15.07;6.05;;;9.50;90.20;;;;;;5034380;28;20489;-85
2021/12/01 09:13:14;;;;;;;8.82;3.05;;;9.60;90.10;;;;;;5044249;28;20405;-84
2021/12/01 09:15:42;;;;;;;10.85;3.25;;;9.60;89.20;;;;;;5038286;28;20040;-85
2021/12/01 09:18:08;;;;;;;12.13;3.10;;;9.70;88.40;;;;;;5049120;28;20029;-85
2021/12/01 09:20:34;;;;;;;8.55;2.70;;;9.80;88.10;;;;;;5045076;28;20361;-85
2021/12/01 09:23:01;;;;;;;10.23;3.38;;;9.80;87.00;;;;;;5045947;28;20025;-85
2021/12/01 09:25:27;;;;;;;11.45;3.20;;;9.80;85.90;;;;;;5048155;28;20488;-86
2021/12/01 09:27:52;;;;;;;8.63;2.53;;;9.80;86.40;;;;;;5049604;28;20036;-85
2021/12/01 09:30:18;;;;;;;6.60;2.58;;;9.70;86.00;;;;;;5039689;28;20037;-86
2021/12/01 09:32:45;;;;;;;10.18;2.72;;;9.70;85.70;;;;;;5046820;28;20044;-85
2021/12/01 09:35:11;;;;;;;11.02;3.25;;;9.70;84.90;;;;;;5045983;28;20114;-86
2021/12/01 09:37:38;;;;;;;8.40;3.10;;;9.60;84.30;;;;;;5038170;28;20033;-85
2021/12/01 09:40:06;;;;;;;7.95;2.90;;;9.70;85.00;;;;;;5047270;28;20043;-85
2021/12/01 09:42:33;;;;;;;9.45;2.30;;;9.80;84.20;;;;;;5044576;28;20032;-83
2021/12/01 09:44:58;;;;;;;8.63;1.90;;;9.90;83.20;;;;;;5040903;28;20033;-80
2021/12/01 09:47:24;;;;;;;7.28;2.60;;;10.00;81.70;;;;;;5046428;28;20040;-79
2021/12/01 09:49:50;;;;;;;6.95;2.05;;;10.00;81.70;;;;;;5042649;28;20032;-80
2021/12/01 09:52:18;;;;;;;9.68;2.67;;;9.90;81.10;;;;;;5037408;28;20025;-80
2021/12/01 09:54:45;;;;;;;6.90;1.75;;;9.90;82.10;;;;;;5048749;28;20103;-80
2021/12/01 09:57:13;;;;;;;8.32;2.60;;;9.80;82.80;;;;;;5051452;28;20116;-80
2021/12/01 09:59:41;;;;;;;7.00;1.83;;;9.70;82.00;;;;;;5047667;28;20553;-80
2021/12/01 10:02:08;;;;;;;9.05;2.20;;;9.80;82.00;;;;;;5046426;28;20131;-79
2021/12/01 10:04:34;;;;;;;10.15;1.88;;;9.80;81.90;;;;;;5044274;28;20035;-80
2021/12/01 10:07:21;;;;;;;9.15;2.50;;;9.70;82.30;;;;;;5046827;28;20025;-80
2021/12/01 10:09:56;;;;;;;7.10;1.98;;;9.80;82.50;;;;;;5045257;28;20042;-79
2021/12/01 10:12:23;;;;;;;7.95;1.80;;;9.90;82.10;;;;;;5046684;28;20049;-80
2021/12/01 10:14:51;;;;;;;8.50;2.05;;;10.10;81.90;;;;;;5038908;28;20091;-80
2021/12/01 10:17:32;;;;;;;8.25;2.20;;;10.10;80.90;;;;;;5043757;28;20111;-80
2021/12/01 10:20:18;;;;;;;12.35;2.65;;;10.10;81.50;;;;;;5038417;28;20040;-80
2021/12/01 10:23:14;;;;;;;5.53;1.80;;;9.90;81.40;;;;;;5039094;28;20057;-80
2021/12/01 10:25:41;;;;;;;5.53;1.77;;;9.80;80.50;;;;;;5047446;28;20041;-81
2021/12/01 10:28:13;;;;;;;9.38;2.83;;;9.70;79.40;;;;;;5042058;28;20458;-80
2021/12/01 10:30:45;;;;;;;7.60;2.90;;;9.80;79.70;;;;;;5043685;28;20037;-80
2021/12/01 10:33:14;;;;;;;5.43;2.00;;;9.80;79.40;;;;;;5060146;28;20034;-81
2021/12/01 10:35:40;;;;;;;9.80;2.35;;;9.80;79.70;;;;;;5060796;28;20044;-80
2021/12/01 10:38:07;;;;;;;7.35;2.20;;;9.80;80.00;;;;;;5068415;28;20040;-80
2021/12/01 10:40:35;;;;;;;7.10;2.17;;;9.80;79.80;;;;;;5051361;28;20048;-80
2021/12/01 10:43:07;;;;;;;7.43;2.00;;;9.70;80.10;;;;;;5044167;28;20036;-81
2021/12/01 10:45:45;;;;;;;6.75;1.95;;;9.70;80.50;;;;;;5051892;28;20029;-80
2021/12/01 10:48:19;;;;;;;9.00;2.30;;;9.60;80.90;;;;;;5045541;28;20131;-81
2021/12/01 10:50:45;;;;;;;7.25;2.05;;;9.60;81.20;;;;;;5049657;28;20063;-80
2021/12/01 10:53:13;;;;;;;7.47;2.88;;;9.50;81.10;;;;;;5051146;28;20029;-80
2021/12/01 10:55:47;;;;;;;4.75;2.10;;;9.40;81.20;;;;;;5052044;28;20083;-80
2021/12/01 10:58:15;;;;;;;7.72;2.38;;;9.40;81.70;;;;;;5050715;28;20060;-81
2021/12/01 11:00:43;;;;;;;6.03;2.72;;;9.40;81.20;;;;;;5050171;28;20448;-79
2021/12/01 11:03:15;;;;;;;12.30;4.00;;;9.30;81.70;;;;;;5048558;28;20045;-80
2021/12/01 11:05:42;;;;;;;9.75;2.40;;;9.30;81.70;;;;;;5048774;28;20127;-79
2021/12/01 11:08:13;;;;;;;9.60;2.83;;;9.20;82.10;;;;;;5048638;28;20041;-79
2021/12/01 11:10:40;;;;;;;7.25;2.25;;;9.20;82.10;;;;;;5048785;28;20048;-79
2021/12/01 11:13:06;;;;;;;8.55;2.28;;;9.30;81.50;;;;;;5056743;28;20057;-80
2021/12/01 11:15:38;;;;;;;8.93;4.13;;;9.40;82.20;;;;;;5043542;28;20469;-80
2021/12/01 11:18:06;;;;;;;5.97;2.05;;;9.40;82.30;;;;;;5047340;28;20037;-82
2021/12/01 11:20:49;;;;;;;9.27;2.53;;;9.50;82.50;;;;;;5042608;28;20490;-80
2021/12/01 11:23:23;;;;;;;7.90;1.88;;;9.50;82.40;;;;;;5042724;28;20040;-81
2021/12/01 11:26:04;;;;;;;8.23;2.05;;;9.50;82.00;;;;;;5051668;28;20041;-80
2021/12/01 11:28:32;;;;;;;7.38;1.80;;;9.60;81.50;;;;;;5043960;28;20053;-80
2021/12/01 11:31:01;;;;;;;5.70;2.13;;;9.70;81.80;;;;;;5045637;28;20079;-81
2021/12/01 11:33:28;;;;;;;3.75;1.52;;;9.80;81.30;;;;;;5055648;28;20040;-80
2021/12/01 11:36:00;;;;;;;8.60;1.60;;;9.90;80.50;;;;;;5044709;28;20060;-80
2021/12/01 11:38:27;;;;;;;5.82;2.17;;;9.90;80.40;;;;;;5050297;28;20156;-80
2021/12/01 11:40:53;;;;;;;6.47;2.00;;;9.90;80.30;;;;;;5043800;28;20050;-80
2021/12/01 11:43:22;;;;;;;8.30;2.00;;;9.90;80.60;;;;;;5040060;28;20033;-81
2021/12/01 11:45:48;;;;;;;5.95;1.77;;;9.90;80.10;;;;;;5036216;28;20044;-80
2021/12/01 11:48:28;;;;;;;6.82;2.10;;;10.00;79.80;;;;;;5044275;28;20083;-81
2021/12/01 11:51:09;;;;;;;4.35;1.50;;;10.00;79.70;;;;;;5044436;28;20045;-81
2021/12/01 11:53:37;;;;;;;4.15;1.40;;;10.00;79.40;;;;;;5044943;28;20088;-80
2021/12/01 11:56:13;;;;;;;4.85;1.35;;;9.90;79.50;;;;;;5039429;28;20057;-81
2021/12/01 11:58:44;;;;;;;5.30;1.50;;;10.00;79.30;;;;;;5040790;28;20033;-80
2021/12/01 12:01:22;;;;;;;5.13;1.30;;;10.00;79.80;;;;;;5040811;28;20029;-79
2021/12/01 12:03:54;;;;;;;4.82;1.30;;;10.10;79.40;;;;;;5043338;28;20045;-80
2021/12/01 12:06:22;;;;;;;3.38;1.25;;;10.10;79.40;;;;;;5041263;28;20052;-81
2021/12/01 12:08:54;;;;;;;5.07;1.40;;;10.10;79.70;;;;;;5042630;28;20073;-80
2021/12/01 12:11:46;;;;;;;5.28;2.08;;;10.20;79.90;;;;;;5039750;28;20037;-80
2021/12/01 12:14:23;;;;;;;8.77;2.30;;;10.20;80.60;;;;;;5045955;28;20053;-81
2021/12/01 12:17:12;;;;;;;6.65;2.22;;;10.20;80.80;;;;;;5057279;28;20487;-80
2021/12/01 12:19:50;;;;;;;3.80;1.55;;;10.10;81.00;;;;;;5051695;28;20163;-81
2021/12/01 12:22:28;;;;;;;6.85;2.13;;;10.10;81.70;;;;;;5049276;28;20033;-80
2021/12/01 12:24:55;;;;;;;6.65;2.03;;;9.90;81.90;;;;;;5045534;28;20071;-80
2021/12/01 12:27:46;;;;;;;6.15;1.77;;;9.90;82.70;;;;;;5045002;28;20044;-80
2021/12/01 12:30:17;;;;;;;8.70;2.03;;;9.60;83.00;;;;;;5041826;28;20046;-80
2021/12/01 12:32:44;;;;;;;7.30;2.50;;;9.60;83.30;;;;;;5049406;28;20124;-80
2021/12/01 12:35:14;;;;;;;8.88;2.40;;;9.60;83.90;;;;;;5049381;28;20044;-81
2021/12/01 12:37:41;;;;;;;11.52;2.00;;;9.40;84.10;;;;;;5047586;28;20041;-80
2021/12/01 12:40:31;;;;;;;9.50;2.40;;;9.40;84.50;;;;;;5048180;28;20555;-81
2021/12/01 12:43:23;;;;;;;10.30;2.35;;;9.30;85.40;;;;;;5041378;28;20110;-80
2021/12/01 12:46:15;;;;;;;9.13;2.53;;;9.30;85.30;;;;;;5059129;28;20484;-79
2021/12/01 12:48:49;;;;;;;11.77;2.90;;;9.30;85.60;;;;;;5043701;28;20120;-79
2021/12/01 12:51:15;;;;;;;9.57;2.30;;;9.40;85.40;;;;;;5046309;28;20045;-79
2021/12/01 12:54:06;;;;;;;12.05;3.38;;;9.30;85.10;;;;;;5041117;28;20448;-81
2021/12/01 12:56:40;;;;;;;12.27;3.28;;;9.30;85.40;;;;;;5041562;28;20041;-80
2021/12/01 12:59:21;;;;;;;14.60;3.05;;;9.40;85.20;;;;;;5046667;28;20440;-80
2021/12/01 13:01:52;;;;;;;12.40;2.50;;;9.40;85.00;;;;;;5036789;28;20038;-80
2021/12/01 13:04:51;;;;;;;10.23;2.72;;;9.40;84.70;;;;;;5040199;28;20085;-80